This is the latest recevied weather packets stored in our database for station/object JA3QOS-13. If no packets are shown the sender has not sent any weather packets the latest 10 day(s).
| Time | Temp. | Humidity | Pressure | Rain* | Wind** | Luminosity | Snow |
|---|---|---|---|---|---|---|---|
| 1777896004 | 8.33° C | 95% | 1014.6 hPa | 0 mm | - | - | - |
| 1777894204 | 8.89° C | 95% | 1014.2 hPa | 0 mm | - | - | - |
| 1777892404 | 8.89° C | 93% | 1013.4 hPa | 0 mm | - | - | - |
| 1777890604 | 9.44° C | 91% | 1012.7 hPa | 0 mm | - | - | - |
| 1777888804 | 9.44° C | 90% | 1011.9 hPa | 0 mm | - | - | - |
| 1777887004 | 10° C | 88% | 1011.3 hPa | 0 mm | - | - | - |
| 1777885204 | 10° C | 92% | 1010.9 hPa | 0 mm | - | - | - |
| 1777883404 | 10° C | 95% | 1010.2 hPa | 0.25 mm | - | - | - |
| 1777881604 | 10° C | 99% | 1009.7 hPa | 1.27 mm | - | - | - |
| 1777879803 | 9.44° C | 98% | 1009.4 hPa | 2.03 mm | - | - | - |
| 1777878004 | 10.56° C | 93% | 1009.2 hPa | 1.02 mm | - | - | - |
| 1777876204 | 13.89° C | 74% | 1008.1 hPa | 0 mm | - | - | - |
| 1777874404 | 14.44° C | 76% | 1007.4 hPa | 0 mm | - | - | - |
| 1777872604 | 15.56° C | 72% | 1007.2 hPa | 0 mm | - | - | - |
| 1777870804 | 17.78° C | 69% | 1007 hPa | 0 mm | - | - | - |
| 1777869004 | 16.11° C | 73% | 1007 hPa | 0 mm | - | - | - |
| 1777867204 | 13.89° C | 78% | 1006.6 hPa | 0 mm | - | - | - |
| 1777865404 | 14.44° C | 78% | 1006.7 hPa | 0 mm | - | - | - |
| 1777863604 | 14.44° C | 77% | 1006.5 hPa | 0 mm | - | - | - |
| 1777861803 | 16.11° C | 73% | 1006.5 hPa | 0 mm | - | - | - |
| 1777860003 | 15° C | 77% | 1006.2 hPa | 0 mm | - | - | - |
| 1777858204 | 15° C | 79% | 1006.3 hPa | 0 mm | - | - | - |
| 1777856404 | 15° C | 84% | 1006.5 hPa | 0 mm | - | - | - |
| 1777854604 | 14.44° C | 86% | 1006.4 hPa | 0 mm | - | - | - |
| 1777852812 | 13.89° C | 89% | 1006.4 hPa | 0 mm | - | - | - |
* Rain latest hour (hover to see other rain measurements)
** Current wind speed in m/s (hover to see current wind gust speed)